sensor_id;sensor_type;location;lat;lon;timestamp;temperature;humidity
34147;DHT22;20423;49.448;9.056;2023-03-24T00:01:00;10.70;99.90
34147;DHT22;20423;49.448;9.056;2023-03-24T00:03:27;10.60;99.90
34147;DHT22;20423;49.448;9.056;2023-03-24T00:05:59;10.60;99.90
34147;DHT22;20423;49.448;9.056;2023-03-24T00:08:31;10.60;99.90
34147;DHT22;20423;49.448;9.056;2023-03-24T00:11:08;10.70;99.90
34147;DHT22;20423;49.448;9.056;2023-03-24T00:13:35;10.70;99.90
34147;DHT22;20423;49.448;9.056;2023-03-24T00:16:08;10.80;99.90
34147;DHT22;20423;49.448;9.056;2023-03-24T00:18:35;10.70;99.90
34147;DHT22;20423;49.448;9.056;2023-03-24T00:21:02;10.80;99.90
34147;DHT22;20423;49.448;9.056;2023-03-24T00:23:29;10.80;99.90
34147;DHT22;20423;49.448;9.056;2023-03-24T00:26:05;10.70;99.90
34147;DHT22;20423;49.448;9.056;2023-03-24T00:28:32;10.80;99.90
34147;DHT22;20423;49.448;9.056;2023-03-24T00:31:03;10.70;99.90
34147;DHT22;20423;49.448;9.056;2023-03-24T00:33:31;10.80;99.90
34147;DHT22;20423;49.448;9.056;2023-03-24T00:36:08;10.80;99.90
34147;DHT22;20423;49.448;9.056;2023-03-24T00:38:37;10.80;99.90
34147;DHT22;20423;49.448;9.056;2023-03-24T00:41:04;10.90;99.90
34147;DHT22;20423;49.448;9.056;2023-03-24T00:43:31;10.80;99.90
34147;DHT22;20423;49.448;9.056;2023-03-24T00:45:58;10.80;99.90
34147;DHT22;20423;49.448;9.056;2023-03-24T00:48:27;10.80;99.90
34147;DHT22;20423;49.448;9.056;2023-03-24T00:50:53;10.80;99.90
34147;DHT22;20423;49.448;9.056;2023-03-24T00:53:20;10.70;99.90
34147;DHT22;20423;49.448;9.056;2023-03-24T00:55:54;10.60;99.90
34147;DHT22;20423;49.448;9.056;2023-03-24T00:58:20;10.50;99.90
34147;DHT22;20423;49.448;9.056;2023-03-24T01:00:48;10.30;99.90
34147;DHT22;20423;49.448;9.056;2023-03-24T01:03:15;10.30;99.90
34147;DHT22;20423;49.448;9.056;2023-03-24T01:05:42;10.30;99.90
34147;DHT22;20423;49.448;9.056;2023-03-24T01:08:13;10.30;99.90
34147;DHT22;20423;49.448;9.056;2023-03-24T01:10:40;10.30;99.90
34147;DHT22;20423;49.448;9.056;2023-03-24T01:13:25;10.20;99.90
34147;DHT22;20423;49.448;9.056;2023-03-24T01:15:52;10.20;99.90
34147;DHT22;20423;49.448;9.056;2023-03-24T01:18:19;10.10;99.90
34147;DHT22;20423;49.448;9.056;2023-03-24T01:20:54;10.00;99.90
34147;DHT22;20423;49.448;9.056;2023-03-24T01:23:22;10.00;99.90
34147;DHT22;20423;49.448;9.056;2023-03-24T01:25:49;9.90;99.90
34147;DHT22;20423;49.448;9.056;2023-03-24T01:28:22;9.90;99.90
34147;DHT22;20423;49.448;9.056;2023-03-24T01:30:53;9.90;99.90
34147;DHT22;20423;49.448;9.056;2023-03-24T01:33:19;10.00;99.90
34147;DHT22;20423;49.448;9.056;2023-03-24T01:35:45;10.10;99.90
34147;DHT22;20423;49.448;9.056;2023-03-24T01:38:13;10.20;99.90
34147;DHT22;20423;49.448;9.056;2023-03-24T01:40:41;10.20;99.90
34147;DHT22;20423;49.448;9.056;2023-03-24T01:43:24;10.20;99.90
34147;DHT22;20423;49.448;9.056;2023-03-24T01:48:53;10.20;99.90
34147;DHT22;20423;49.448;9.056;2023-03-24T01:54:03;10.00;99.90
34147;DHT22;20423;49.448;9.056;2023-03-24T01:56:33;9.90;99.90
34147;DHT22;20423;49.448;9.056;2023-03-24T01:59:08;9.90;99.90
34147;DHT22;20423;49.448;9.056;2023-03-24T02:02:06;9.90;99.90
34147;DHT22;20423;49.448;9.056;2023-03-24T02:04:52;9.90;99.90
34147;DHT22;20423;49.448;9.056;2023-03-24T02:10:19;10.00;99.90
34147;DHT22;20423;49.448;9.056;2023-03-24T02:12:45;10.10;99.90
34147;DHT22;20423;49.448;9.056;2023-03-24T02:15:14;10.10;99.90
34147;DHT22;20423;49.448;9.056;2023-03-24T02:18:14;10.20;99.90
34147;DHT22;20423;49.448;9.056;2023-03-24T02:23:38;10.20;99.90
34147;DHT22;20423;49.448;9.056;2023-03-24T02:48:33;10.30;99.90
34147;DHT22;20423;49.448;9.056;2023-03-24T02:54:07;10.30;99.90
34147;DHT22;20423;49.448;9.056;2023-03-24T02:57:23;10.40;99.90
34147;DHT22;20423;49.448;9.056;2023-03-24T03:03:15;10.30;99.90
34147;DHT22;20423;49.448;9.056;2023-03-24T03:06:13;10.30;99.90
34147;DHT22;20423;49.448;9.056;2023-03-24T03:08:39;10.30;99.90
34147;DHT22;20423;49.448;9.056;2023-03-24T03:11:08;10.30;99.90
34147;DHT22;20423;49.448;9.056;2023-03-24T03:13:39;10.30;99.90
34147;DHT22;20423;49.448;9.056;2023-03-24T03:16:14;10.30;99.90
34147;DHT22;20423;49.448;9.056;2023-03-24T03:19:13;10.40;99.90
34147;DHT22;20423;49.448;9.056;2023-03-24T03:21:47;10.50;99.90
34147;DHT22;20423;49.448;9.056;2023-03-24T03:24:33;10.50;99.90
34147;DHT22;20423;49.448;9.056;2023-03-24T03:27:19;10.40;99.90
34147;DHT22;20423;49.448;9.056;2023-03-24T03:29:52;10.40;99.90
34147;DHT22;20423;49.448;9.056;2023-03-24T03:32:29;10.40;99.90
34147;DHT22;20423;49.448;9.056;2023-03-24T03:35:14;10.40;99.90
34147;DHT22;20423;49.448;9.056;2023-03-24T03:38:10;10.40;99.90
34147;DHT22;20423;49.448;9.056;2023-03-24T03:40:50;10.40;99.90
34147;DHT22;20423;49.448;9.056;2023-03-24T03:43:21;10.40;99.90
34147;DHT22;20423;49.448;9.056;2023-03-24T03:45:47;10.50;99.90
34147;DHT22;20423;49.448;9.056;2023-03-24T03:48:15;10.50;99.90
34147;DHT22;20423;49.448;9.056;2023-03-24T03:50:42;10.40;99.90
34147;DHT22;20423;49.448;9.056;2023-03-24T03:53:08;10.40;99.90
34147;DHT22;20423;49.448;9.056;2023-03-24T03:55:35;10.50;99.90
34147;DHT22;20423;49.448;9.056;2023-03-24T03:58:03;10.50;99.90
34147;DHT22;20423;49.448;9.056;2023-03-24T04:00:42;10.50;99.90
34147;DHT22;20423;49.448;9.056;2023-03-24T04:12:18;10.60;99.90
34147;DHT22;20423;49.448;9.056;2023-03-24T04:26:47;10.50;99.90
34147;DHT22;20423;49.448;9.056;2023-03-24T04:29:30;10.80;99.90
34147;DHT22;20423;49.448;9.056;2023-03-24T04:32:08;10.90;99.90
34147;DHT22;20423;49.448;9.056;2023-03-24T04:34:56;11.10;99.90
34147;DHT22;20423;49.448;9.056;2023-03-24T04:37:46;11.30;99.90
34147;DHT22;20423;49.448;9.056;2023-03-24T04:40:19;11.30;99.90
34147;DHT22;20423;49.448;9.056;2023-03-24T04:42:55;11.40;99.90
34147;DHT22;20423;49.448;9.056;2023-03-24T04:45:36;11.30;99.90
34147;DHT22;20423;49.448;9.056;2023-03-24T04:48:17;11.10;99.90
34147;DHT22;20423;49.448;9.056;2023-03-24T04:51:14;10.80;99.90
34147;DHT22;20423;49.448;9.056;2023-03-24T04:54:01;10.40;99.90
34147;DHT22;20423;49.448;9.056;2023-03-24T04:56:33;10.20;99.90
34147;DHT22;20423;49.448;9.056;2023-03-24T04:59:08;10.00;99.90
34147;DHT22;20423;49.448;9.056;2023-03-24T05:01:36;9.90;99.90
34147;DHT22;20423;49.448;9.056;2023-03-24T05:04:23;9.90;99.90
34147;DHT22;20423;49.448;9.056;2023-03-24T05:06:51;9.80;99.90
34147;DHT22;20423;49.448;9.056;2023-03-24T05:09:23;9.70;99.90
34147;DHT22;20423;49.448;9.056;2023-03-24T05:11:56;9.70;99.90
34147;DHT22;20423;49.448;9.056;2023-03-24T05:14:22;9.70;99.90
34147;DHT22;20423;49.448;9.056;2023-03-24T05:16:58;9.70;99.90
34147;DHT22;20423;49.448;9.056;2023-03-24T05:19:52;9.60;99.90
34147;DHT22;20423;49.448;9.056;2023-03-24T05:22:18;9.60;99.90
34147;DHT22;20423;49.448;9.056;2023-03-24T05:24:44;9.60;99.90
34147;DHT22;20423;49.448;9.056;2023-03-24T05:27:10;9.60;99.90
34147;DHT22;20423;49.448;9.056;2023-03-24T05:29:36;9.50;99.90
34147;DHT22;20423;49.448;9.056;2023-03-24T05:32:01;9.60;99.90
34147;DHT22;20423;49.448;9.056;2023-03-24T05:34:29;9.50;99.90
34147;DHT22;20423;49.448;9.056;2023-03-24T05:37:15;9.50;99.90
34147;DHT22;20423;49.448;9.056;2023-03-24T05:39:45;9.50;99.90
34147;DHT22;20423;49.448;9.056;2023-03-24T05:42:29;9.50;99.90
34147;DHT22;20423;49.448;9.056;2023-03-24T05:44:57;9.50;99.90
34147;DHT22;20423;49.448;9.056;2023-03-24T05:47:26;9.50;99.90
34147;DHT22;20423;49.448;9.056;2023-03-24T05:49:52;9.50;99.90
34147;DHT22;20423;49.448;9.056;2023-03-24T05:52:18;9.50;99.90
34147;DHT22;20423;49.448;9.056;2023-03-24T05:54:47;9.50;99.90
34147;DHT22;20423;49.448;9.056;2023-03-24T05:57:20;9.50;99.90
34147;DHT22;20423;49.448;9.056;2023-03-24T06:00:06;9.50;99.90
34147;DHT22;20423;49.448;9.056;2023-03-24T06:02:44;9.50;99.90
34147;DHT22;20423;49.448;9.056;2023-03-24T06:05:45;9.50;99.90
34147;DHT22;20423;49.448;9.056;2023-03-24T06:08:20;9.50;99.90
34147;DHT22;20423;49.448;9.056;2023-03-24T06:10:46;9.60;99.90
34147;DHT22;20423;49.448;9.056;2023-03-24T06:13:13;9.60;99.90
34147;DHT22;20423;49.448;9.056;2023-03-24T06:15:48;9.60;99.90
34147;DHT22;20423;49.448;9.056;2023-03-24T06:18:36;9.60;99.90
34147;DHT22;20423;49.448;9.056;2023-03-24T06:21:12;9.60;99.90
34147;DHT22;20423;49.448;9.056;2023-03-24T06:23:42;9.70;99.90
34147;DHT22;20423;49.448;9.056;2023-03-24T06:26:11;9.70;99.90
34147;DHT22;20423;49.448;9.056;2023-03-24T06:28:57;9.70;99.90
34147;DHT22;20423;49.448;9.056;2023-03-24T06:31:25;9.80;99.90
34147;DHT22;20423;49.448;9.056;2023-03-24T06:33:54;9.80;99.90
34147;DHT22;20423;49.448;9.056;2023-03-24T06:36:20;9.80;99.90
34147;DHT22;20423;49.448;9.056;2023-03-24T06:39:16;9.80;99.90
34147;DHT22;20423;49.448;9.056;2023-03-24T06:41:42;9.80;99.90
34147;DHT22;20423;49.448;9.056;2023-03-24T06:44:08;9.90;99.90
34147;DHT22;20423;49.448;9.056;2023-03-24T06:46:34;9.90;99.90
34147;DHT22;20423;49.448;9.056;2023-03-24T06:49:00;9.90;99.90
34147;DHT22;20423;49.448;9.056;2023-03-24T06:51:26;9.90;99.90
34147;DHT22;20423;49.448;9.056;2023-03-24T06:53:52;9.80;99.90
34147;DHT22;20423;49.448;9.056;2023-03-24T06:56:21;9.80;99.90
34147;DHT22;20423;49.448;9.056;2023-03-24T06:58:52;9.80;99.90
34147;DHT22;20423;49.448;9.056;2023-03-24T07:01:27;9.80;99.90
34147;DHT22;20423;49.448;9.056;2023-03-24T07:04:02;9.90;99.90
34147;DHT22;20423;49.448;9.056;2023-03-24T07:06:48;9.90;99.90
34147;DHT22;20423;49.448;9.056;2023-03-24T07:09:17;9.90;99.90
34147;DHT22;20423;49.448;9.056;2023-03-24T07:11:43;10.00;99.90
34147;DHT22;20423;49.448;9.056;2023-03-24T07:14:09;9.90;99.90
34147;DHT22;20423;49.448;9.056;2023-03-24T07:16:35;9.90;99.90
34147;DHT22;20423;49.448;9.056;2023-03-24T07:19:21;10.00;99.90
34147;DHT22;20423;49.448;9.056;2023-03-24T07:21:55;10.00;99.90
34147;DHT22;20423;49.448;9.056;2023-03-24T07:24:34;10.00;99.90
34147;DHT22;20423;49.448;9.056;2023-03-24T07:27:15;10.10;99.90
34147;DHT22;20423;49.448;9.056;2023-03-24T07:29:44;10.10;99.90
34147;DHT22;20423;49.448;9.056;2023-03-24T07:32:17;10.00;99.90
34147;DHT22;20423;49.448;9.056;2023-03-24T07:34:43;10.00;99.90
34147;DHT22;20423;49.448;9.056;2023-03-24T07:37:10;10.10;99.90
34147;DHT22;20423;49.448;9.056;2023-03-24T07:39:36;10.10;99.90
34147;DHT22;20423;49.448;9.056;2023-03-24T07:42:04;10.10;99.90
34147;DHT22;20423;49.448;9.056;2023-03-24T07:44:45;10.10;99.90
34147;DHT22;20423;49.448;9.056;2023-03-24T07:47:11;10.10;99.90
34147;DHT22;20423;49.448;9.056;2023-03-24T07:49:37;10.10;99.90
34147;DHT22;20423;49.448;9.056;2023-03-24T07:52:06;10.10;99.90
34147;DHT22;20423;49.448;9.056;2023-03-24T07:54:35;10.10;99.90
34147;DHT22;20423;49.448;9.056;2023-03-24T07:57:01;10.10;99.90
34147;DHT22;20423;49.448;9.056;2023-03-24T07:59:27;10.10;99.90
34147;DHT22;20423;49.448;9.056;2023-03-24T08:02:25;10.20;99.90
34147;DHT22;20423;49.448;9.056;2023-03-24T08:08:30;10.10;99.90
34147;DHT22;20423;49.448;9.056;2023-03-24T08:10:56;10.10;99.90
34147;DHT22;20423;49.448;9.056;2023-03-24T08:13:22;10.20;99.90
34147;DHT22;20423;49.448;9.056;2023-03-24T08:15:49;10.10;99.90
34147;DHT22;20423;49.448;9.056;2023-03-24T08:18:18;10.10;99.90
34147;DHT22;20423;49.448;9.056;2023-03-24T08:20:47;10.10;99.90
34147;DHT22;20423;49.448;9.056;2023-03-24T08:23:13;10.10;99.90
34147;DHT22;20423;49.448;9.056;2023-03-24T08:25:39;10.10;99.90
34147;DHT22;20423;49.448;9.056;2023-03-24T08:28:05;10.10;99.90
34147;DHT22;20423;49.448;9.056;2023-03-24T08:30:31;10.10;99.90
34147;DHT22;20423;49.448;9.056;2023-03-24T08:32:59;10.00;99.90
34147;DHT22;20423;49.448;9.056;2023-03-24T08:35:31;10.10;99.90
34147;DHT22;20423;49.448;9.056;2023-03-24T08:37:58;10.00;99.90
34147;DHT22;20423;49.448;9.056;2023-03-24T08:40:26;10.00;99.90
34147;DHT22;20423;49.448;9.056;2023-03-24T08:42:54;10.10;99.90
34147;DHT22;20423;49.448;9.056;2023-03-24T08:45:22;10.10;99.90
34147;DHT22;20423;49.448;9.056;2023-03-24T08:47:50;10.20;99.90
34147;DHT22;20423;49.448;9.056;2023-03-24T08:50:18;10.10;99.90
34147;DHT22;20423;49.448;9.056;2023-03-24T08:52:44;10.10;99.90
34147;DHT22;20423;49.448;9.056;2023-03-24T08:55:13;10.00;99.90
34147;DHT22;20423;49.448;9.056;2023-03-24T08:57:39;10.00;99.90
34147;DHT22;20423;49.448;9.056;2023-03-24T09:00:24;10.00;99.90
34147;DHT22;20423;49.448;9.056;2023-03-24T09:02:54;10.10;99.90
34147;DHT22;20423;49.448;9.056;2023-03-24T09:05:23;10.10;99.90
34147;DHT22;20423;49.448;9.056;2023-03-24T09:07:50;10.10;99.90
34147;DHT22;20423;49.448;9.056;2023-03-24T09:10:16;10.20;99.90
34147;DHT22;20423;49.448;9.056;2023-03-24T09:12:43;10.10;99.90
34147;DHT22;20423;49.448;9.056;2023-03-24T09:15:10;10.10;99.90
34147;DHT22;20423;49.448;9.056;2023-03-24T09:17:36;10.10;99.90
34147;DHT22;20423;49.448;9.056;2023-03-24T09:20:04;10.20;99.90
34147;DHT22;20423;49.448;9.056;2023-03-24T09:22:35;10.30;99.90
34147;DHT22;20423;49.448;9.056;2023-03-24T09:25:01;10.20;99.90
34147;DHT22;20423;49.448;9.056;2023-03-24T09:27:27;10.30;99.90
34147;DHT22;20423;49.448;9.056;2023-03-24T09:29:52;10.30;99.90
34147;DHT22;20423;49.448;9.056;2023-03-24T09:32:18;10.30;99.90
34147;DHT22;20423;49.448;9.056;2023-03-24T09:34:44;10.40;99.90
34147;DHT22;20423;49.448;9.056;2023-03-24T09:37:10;10.30;99.90
34147;DHT22;20423;49.448;9.056;2023-03-24T09:39:36;10.40;99.90
34147;DHT22;20423;49.448;9.056;2023-03-24T09:42:06;10.40;99.90
34147;DHT22;20423;49.448;9.056;2023-03-24T09:44:38;10.40;99.90
34147;DHT22;20423;49.448;9.056;2023-03-24T09:47:24;10.50;99.90
34147;DHT22;20423;49.448;9.056;2023-03-24T09:50:31;10.60;99.90
34147;DHT22;20423;49.448;9.056;2023-03-24T09:53:13;10.70;99.90
34147;DHT22;20423;49.448;9.056;2023-03-24T09:55:43;10.60;99.90
34147;DHT22;20423;49.448;9.056;2023-03-24T09:58:10;10.60;99.90
34147;DHT22;20423;49.448;9.056;2023-03-24T10:00:37;10.40;99.90
34147;DHT22;20423;49.448;9.056;2023-03-24T10:03:23;10.30;99.90
34147;DHT22;20423;49.448;9.056;2023-03-24T10:08:40;10.20;99.90
34147;DHT22;20423;49.448;9.056;2023-03-24T10:11:15;10.30;99.90
34147;DHT22;20423;49.448;9.056;2023-03-24T10:21:39;10.30;99.90
34147;DHT22;20423;49.448;9.056;2023-03-24T10:24:21;10.30;99.90
34147;DHT22;20423;49.448;9.056;2023-03-24T10:30:35;10.30;99.90
34147;DHT22;20423;49.448;9.056;2023-03-24T10:33:04;10.30;99.90
34147;DHT22;20423;49.448;9.056;2023-03-24T10:35:36;10.30;99.90
34147;DHT22;20423;49.448;9.056;2023-03-24T10:38:18;10.30;99.90
34147;DHT22;20423;49.448;9.056;2023-03-24T10:40:46;10.30;99.90
34147;DHT22;20423;49.448;9.056;2023-03-24T10:43:13;10.30;99.90
34147;DHT22;20423;49.448;9.056;2023-03-24T10:45:43;10.30;99.90
34147;DHT22;20423;49.448;9.056;2023-03-24T10:48:12;10.30;99.90
34147;DHT22;20423;49.448;9.056;2023-03-24T10:50:42;10.30;99.90
34147;DHT22;20423;49.448;9.056;2023-03-24T10:53:18;10.40;99.90
34147;DHT22;20423;49.448;9.056;2023-03-24T10:55:45;10.40;99.90
34147;DHT22;20423;49.448;9.056;2023-03-24T10:58:40;10.40;99.90
34147;DHT22;20423;49.448;9.056;2023-03-24T11:03:42;10.30;99.90
34147;DHT22;20423;49.448;9.056;2023-03-24T11:06:17;10.30;99.90
34147;DHT22;20423;49.448;9.056;2023-03-24T11:08:43;10.40;99.90
34147;DHT22;20423;49.448;9.056;2023-03-24T11:11:29;10.40;99.90
34147;DHT22;20423;49.448;9.056;2023-03-24T11:13:59;10.40;99.90
34147;DHT22;20423;49.448;9.056;2023-03-24T11:16:35;10.30;99.90
34147;DHT22;20423;49.448;9.056;2023-03-24T11:19:06;10.30;99.90
34147;DHT22;20423;49.448;9.056;2023-03-24T11:21:42;10.30;99.90
34147;DHT22;20423;49.448;9.056;2023-03-24T11:24:16;10.20;99.90
34147;DHT22;20423;49.448;9.056;2023-03-24T11:26:55;10.20;99.90
34147;DHT22;20423;49.448;9.056;2023-03-24T11:29:23;10.40;99.90
34147;DHT22;20423;49.448;9.056;2023-03-24T11:31:55;10.60;99.90
34147;DHT22;20423;49.448;9.056;2023-03-24T11:34:30;10.60;99.90
34147;DHT22;20423;49.448;9.056;2023-03-24T11:37:18;10.60;99.90
34147;DHT22;20423;49.448;9.056;2023-03-24T11:40:24;10.60;99.90
34147;DHT22;20423;49.448;9.056;2023-03-24T11:43:00;10.70;99.90
34147;DHT22;20423;49.448;9.056;2023-03-24T11:45:38;10.70;99.90
34147;DHT22;20423;49.448;9.056;2023-03-24T11:48:18;10.60;99.90
34147;DHT22;20423;49.448;9.056;2023-03-24T11:50:46;10.70;99.90
34147;DHT22;20423;49.448;9.056;2023-03-24T11:53:22;10.80;99.90
34147;DHT22;20423;49.448;9.056;2023-03-24T11:58:35;10.60;99.90
34147;DHT22;20423;49.448;9.056;2023-03-24T12:06:26;10.20;99.90
34147;DHT22;20423;49.448;9.056;2023-03-24T12:17:40;10.20;99.90
34147;DHT22;20423;49.448;9.056;2023-03-24T12:26:25;10.10;99.90
34147;DHT22;20423;49.448;9.056;2023-03-24T12:28:57;10.10;99.90
34147;DHT22;20423;49.448;9.056;2023-03-24T12:34:16;10.40;99.90
34147;DHT22;20423;49.448;9.056;2023-03-24T12:39:30;10.50;99.90
34147;DHT22;20423;49.448;9.056;2023-03-24T12:50:25;10.10;99.90
34147;DHT22;20423;49.448;9.056;2023-03-24T12:53:17;10.10;99.90
34147;DHT22;20423;49.448;9.056;2023-03-24T12:56:15;10.30;99.90
34147;DHT22;20423;49.448;9.056;2023-03-24T12:58:55;10.40;99.90
34147;DHT22;20423;49.448;9.056;2023-03-24T13:01:34;10.60;99.90
34147;DHT22;20423;49.448;9.056;2023-03-24T13:04:25;10.90;99.90
34147;DHT22;20423;49.448;9.056;2023-03-24T13:11:57;11.90;99.90
34147;DHT22;20423;49.448;9.056;2023-03-24T13:14:33;12.20;99.90
34147;DHT22;20423;49.448;9.056;2023-03-24T13:17:07;12.30;99.90
34147;DHT22;20423;49.448;9.056;2023-03-24T13:19:57;12.30;99.90
34147;DHT22;20423;49.448;9.056;2023-03-24T13:22:24;12.30;99.90
34147;DHT22;20423;49.448;9.056;2023-03-24T13:24:51;12.20;99.90
34147;DHT22;20423;49.448;9.056;2023-03-24T13:27:30;12.10;99.90
34147;DHT22;20423;49.448;9.056;2023-03-24T13:32:52;12.10;99.90
34147;DHT22;20423;49.448;9.056;2023-03-24T13:41:05;12.10;99.90
34147;DHT22;20423;49.448;9.056;2023-03-24T13:43:32;12.00;99.90
34147;DHT22;20423;49.448;9.056;2023-03-24T13:46:01;12.00;99.90
34147;DHT22;20423;49.448;9.056;2023-03-24T13:48:35;11.90;99.90
34147;DHT22;20423;49.448;9.056;2023-03-24T13:51:21;11.80;99.90
34147;DHT22;20423;49.448;9.056;2023-03-24T13:56:38;12.40;99.90
34147;DHT22;20423;49.448;9.056;2023-03-24T13:59:23;12.40;99.90
34147;DHT22;20423;49.448;9.056;2023-03-24T14:02:19;12.30;99.90
34147;DHT22;20423;49.448;9.056;2023-03-24T14:05:03;12.20;99.90
34147;DHT22;20423;49.448;9.056;2023-03-24T14:15:29;11.60;99.90
34147;DHT22;20423;49.448;9.056;2023-03-24T14:26:28;11.90;99.90
34147;DHT22;20423;49.448;9.056;2023-03-24T14:28:57;12.20;99.90
34147;DHT22;20423;49.448;9.056;2023-03-24T14:31:33;12.40;99.90
34147;DHT22;20423;49.448;9.056;2023-03-24T14:34:18;12.20;99.90
34147;DHT22;20423;49.448;9.056;2023-03-24T14:36:46;12.10;99.90
34147;DHT22;20423;49.448;9.056;2023-03-24T14:40:05;12.10;99.90
34147;DHT22;20423;49.448;9.056;2023-03-24T14:49:20;12.30;99.90
34147;DHT22;20423;49.448;9.056;2023-03-24T14:52:15;12.40;99.90
34147;DHT22;20423;49.448;9.056;2023-03-24T14:54:55;12.20;99.90
34147;DHT22;20423;49.448;9.056;2023-03-24T14:57:25;12.00;99.90
34147;DHT22;20423;49.448;9.056;2023-03-24T15:08:14;12.60;99.90
34147;DHT22;20423;49.448;9.056;2023-03-24T15:11:01;12.60;99.90
34147;DHT22;20423;49.448;9.056;2023-03-24T15:13:41;12.30;99.90
34147;DHT22;20423;49.448;9.056;2023-03-24T15:18:57;12.00;99.90
34147;DHT22;20423;49.448;9.056;2023-03-24T15:21:44;11.90;99.90
34147;DHT22;20423;49.448;9.056;2023-03-24T15:26:45;11.60;99.90
34147;DHT22;20423;49.448;9.056;2023-03-24T15:29:11;11.50;99.90
34147;DHT22;20423;49.448;9.056;2023-03-24T15:31:38;11.50;99.90
34147;DHT22;20423;49.448;9.056;2023-03-24T15:34:30;11.60;99.90
34147;DHT22;20423;49.448;9.056;2023-03-24T15:37:04;11.60;99.90
34147;DHT22;20423;49.448;9.056;2023-03-24T15:39:38;11.60;99.90
34147;DHT22;20423;49.448;9.056;2023-03-24T15:42:07;11.60;99.90
34147;DHT22;20423;49.448;9.056;2023-03-24T15:44:38;11.90;99.90
34147;DHT22;20423;49.448;9.056;2023-03-24T15:47:14;12.00;99.90
34147;DHT22;20423;49.448;9.056;2023-03-24T15:50:01;11.90;99.90
34147;DHT22;20423;49.448;9.056;2023-03-24T15:52:36;11.90;99.90
34147;DHT22;20423;49.448;9.056;2023-03-24T15:57:55;11.80;99.90
34147;DHT22;20423;49.448;9.056;2023-03-24T16:00:28;11.90;99.90
34147;DHT22;20423;49.448;9.056;2023-03-24T16:02:59;11.90;99.90
34147;DHT22;20423;49.448;9.056;2023-03-24T16:05:29;11.80;99.90
34147;DHT22;20423;49.448;9.056;2023-03-24T16:10:39;11.20;99.90
34147;DHT22;20423;49.448;9.056;2023-03-24T16:13:12;11.10;99.90
34147;DHT22;20423;49.448;9.056;2023-03-24T16:15:42;11.20;99.90
34147;DHT22;20423;49.448;9.056;2023-03-24T16:18:22;11.50;99.90
34147;DHT22;20423;49.448;9.056;2023-03-24T16:20:48;12.10;99.90
34147;DHT22;20423;49.448;9.056;2023-03-24T16:23:16;13.10;99.90
34147;DHT22;20423;49.448;9.056;2023-03-24T16:25:42;13.60;99.90
34147;DHT22;20423;49.448;9.056;2023-03-24T16:28:12;13.70;99.90
34147;DHT22;20423;49.448;9.056;2023-03-24T16:30:40;13.50;99.90
34147;DHT22;20423;49.448;9.056;2023-03-24T16:33:07;13.40;99.90
34147;DHT22;20423;49.448;9.056;2023-03-24T16:35:33;13.10;99.90
34147;DHT22;20423;49.448;9.056;2023-03-24T16:37:59;12.90;99.90
34147;DHT22;20423;49.448;9.056;2023-03-24T16:40:50;12.60;99.90
34147;DHT22;20423;49.448;9.056;2023-03-24T16:43:16;12.10;99.90
34147;DHT22;20423;49.448;9.056;2023-03-24T16:45:45;11.70;99.90
34147;DHT22;20423;49.448;9.056;2023-03-24T16:48:11;11.40;99.90
34147;DHT22;20423;49.448;9.056;2023-03-24T16:50:39;11.30;99.90
34147;DHT22;20423;49.448;9.056;2023-03-24T16:53:07;11.10;99.90
34147;DHT22;20423;49.448;9.056;2023-03-24T16:55:38;11.10;99.90
34147;DHT22;20423;49.448;9.056;2023-03-24T16:58:04;11.00;99.90
34147;DHT22;20423;49.448;9.056;2023-03-24T17:00:31;10.90;99.90
34147;DHT22;20423;49.448;9.056;2023-03-24T17:02:58;10.80;99.90
34147;DHT22;20423;49.448;9.056;2023-03-24T17:05:45;10.60;99.90
34147;DHT22;20423;49.448;9.056;2023-03-24T17:08:13;10.40;99.90
34147;DHT22;20423;49.448;9.056;2023-03-24T17:10:41;10.20;99.90
34147;DHT22;20423;49.448;9.056;2023-03-24T17:13:11;10.00;99.90
34147;DHT22;20423;49.448;9.056;2023-03-24T17:15:40;9.90;99.90
34147;DHT22;20423;49.448;9.056;2023-03-24T17:18:07;9.70;99.90
34147;DHT22;20423;49.448;9.056;2023-03-24T17:20:33;9.60;99.90
34147;DHT22;20423;49.448;9.056;2023-03-24T17:22:59;9.50;99.90
34147;DHT22;20423;49.448;9.056;2023-03-24T17:25:26;9.40;99.90
34147;DHT22;20423;49.448;9.056;2023-03-24T17:27:55;9.30;99.90
34147;DHT22;20423;49.448;9.056;2023-03-24T17:30:23;9.30;99.90
34147;DHT22;20423;49.448;9.056;2023-03-24T17:32:49;9.20;99.90
34147;DHT22;20423;49.448;9.056;2023-03-24T17:35:18;9.20;99.90
34147;DHT22;20423;49.448;9.056;2023-03-24T17:37:44;9.10;99.90
34147;DHT22;20423;49.448;9.056;2023-03-24T17:40:12;9.10;99.90
34147;DHT22;20423;49.448;9.056;2023-03-24T17:42:40;9.10;99.90
34147;DHT22;20423;49.448;9.056;2023-03-24T17:45:08;9.00;99.90
34147;DHT22;20423;49.448;9.056;2023-03-24T17:47:34;9.00;99.90
34147;DHT22;20423;49.448;9.056;2023-03-24T17:50:00;9.00;99.90
34147;DHT22;20423;49.448;9.056;2023-03-24T17:52:26;9.00;99.90
34147;DHT22;20423;49.448;9.056;2023-03-24T17:54:52;9.00;99.90
34147;DHT22;20423;49.448;9.056;2023-03-24T17:57:17;9.10;99.90
34147;DHT22;20423;49.448;9.056;2023-03-24T17:59:43;9.10;99.90
34147;DHT22;20423;49.448;9.056;2023-03-24T18:02:11;9.00;99.90
34147;DHT22;20423;49.448;9.056;2023-03-24T18:04:38;9.10;99.90
34147;DHT22;20423;49.448;9.056;2023-03-24T18:07:04;9.20;99.90
34147;DHT22;20423;49.448;9.056;2023-03-24T18:09:33;9.20;99.90
34147;DHT22;20423;49.448;9.056;2023-03-24T18:11:58;9.20;99.90
34147;DHT22;20423;49.448;9.056;2023-03-24T18:14:24;9.10;99.90
34147;DHT22;20423;49.448;9.056;2023-03-24T18:16:50;9.10;99.90
34147;DHT22;20423;49.448;9.056;2023-03-24T18:19:16;9.00;99.90
34147;DHT22;20423;49.448;9.056;2023-03-24T18:21:42;9.00;99.90
34147;DHT22;20423;49.448;9.056;2023-03-24T18:24:09;8.90;99.90
34147;DHT22;20423;49.448;9.056;2023-03-24T18:26:35;8.90;99.90
34147;DHT22;20423;49.448;9.056;2023-03-24T18:29:00;8.90;99.90
34147;DHT22;20423;49.448;9.056;2023-03-24T18:31:26;8.90;99.90
34147;DHT22;20423;49.448;9.056;2023-03-24T18:33:53;8.80;99.90
34147;DHT22;20423;49.448;9.056;2023-03-24T18:36:20;8.80;99.90
34147;DHT22;20423;49.448;9.056;2023-03-24T18:38:58;8.80;99.90
34147;DHT22;20423;49.448;9.056;2023-03-24T18:41:24;8.80;99.90
34147;DHT22;20423;49.448;9.056;2023-03-24T18:43:54;8.70;99.90
34147;DHT22;20423;49.448;9.056;2023-03-24T18:46:20;8.80;99.90
34147;DHT22;20423;49.448;9.056;2023-03-24T18:48:46;8.80;99.90
34147;DHT22;20423;49.448;9.056;2023-03-24T18:51:13;8.70;99.90
34147;DHT22;20423;49.448;9.056;2023-03-24T18:53:39;8.70;99.90
34147;DHT22;20423;49.448;9.056;2023-03-24T18:56:06;8.70;99.90
34147;DHT22;20423;49.448;9.056;2023-03-24T18:58:32;8.70;99.90
34147;DHT22;20423;49.448;9.056;2023-03-24T19:01:02;8.60;99.90
34147;DHT22;20423;49.448;9.056;2023-03-24T19:03:28;8.70;99.90
34147;DHT22;20423;49.448;9.056;2023-03-24T19:05:59;8.70;99.90